This is the latest recevied weather packets stored in our database for station/object ON7AMI-5. If no packets are shown the sender has not sent any weather packets the latest 1 day(s).
| Time | Temp. | Humidity | Pressure | Rain* | Wind** | Luminosity | Snow |
|---|---|---|---|---|---|---|---|
| 1778099735 | 10° C | 86% | 1013.6 hPa | 0 mm | - | - | - |
| 1778099436 | 10° C | 86% | 1013.5 hPa | 0 mm | - | - | - |
| 1778096136 | 12.22° C | 87% | 1013 hPa | 0 mm | - | - | - |
| 1778095835 | 12.22° C | 87% | 1013 hPa | 0 mm | - | - | - |
| 1778095536 | 12.22° C | 87% | 1013 hPa | 0 mm | - | - | - |
| 1778094935 | 12.22° C | 87% | 1012.9 hPa | 0 mm | - | - | - |
| 1778093136 | 12.78° C | 87% | 1012.5 hPa | 0 mm | - | - | - |
| 1778092835 | 12.78° C | 87% | 1012.5 hPa | 0 mm | - | - | - |
| 1778092235 | 12.78° C | 87% | 1012.4 hPa | 0 mm | - | - | - |
| 1778091936 | 12.78° C | 87% | 1012.3 hPa | 0 mm | - | - | - |
| 1778091335 | 13.33° C | 87% | 1012.3 hPa | 0 mm | - | - | - |
| 1778091036 | 13.33° C | 87% | 1012.2 hPa | 0 mm | - | - | - |
| 1778090137 | 13.33° C | 87% | 1012.1 hPa | 0 mm | - | - | - |
| 1778089837 | 13.89° C | 87% | 1012 hPa | 0 mm | - | - | - |
| 1778088936 | 14.44° C | 86% | 1011.7 hPa | 0 mm | - | - | - |
| 1778087737 | 15.56° C | 87% | 1011.3 hPa | 0 mm | - | - | - |
| 1778087430 | 15.56° C | 87% | 1011.2 hPa | 0 mm | - | - | - |
| 1778087136 | 15.56° C | 87% | 1011.2 hPa | 0 mm | - | - | - |
| 1778086536 | 15.56° C | 87% | 1011.2 hPa | 0 mm | - | - | - |
| 1778085636 | 15.56° C | 87% | 1011.1 hPa | 0 mm | - | - | - |
| 1778085335 | 15.56° C | 87% | 1011.2 hPa | 0 mm | - | - | - |
| 1778084129 | 16.11° C | 87% | 1011.2 hPa | 0 mm | - | - | - |
| 1778083835 | 16.11° C | 87% | 1011.1 hPa | 0 mm | - | - | - |
| 1778083536 | 16.67° C | 87% | 1011.1 hPa | 0 mm | - | - | - |
| 1778083230 | 16.67° C | 88% | 1011 hPa | 0 mm | - | - | - |
* Rain latest hour (hover to see other rain measurements)
** Current wind speed in m/s (hover to see current wind gust speed)